createdAt,value
2023-07-03T00:00:12.874Z,75.48
2023-07-03T00:01:12.870Z,75.98
2023-07-03T00:02:12.915Z,74.77
2023-07-03T00:03:12.872Z,75.88
2023-07-03T00:04:12.955Z,75.88
2023-07-03T00:05:13.002Z,75.98
2023-07-03T00:06:12.871Z,75.88
2023-07-03T00:07:12.873Z,75.57
2023-07-03T00:08:12.874Z,75.88
2023-07-03T00:09:12.879Z,75.37
2023-07-03T00:10:12.900Z,75.17
2023-07-03T00:11:12.877Z,76.08
2023-07-03T00:12:12.886Z,73.15
2023-07-03T00:13:12.872Z,73.15
2023-07-03T00:14:12.878Z,74.77
2023-07-03T00:15:12.882Z,76.89
2023-07-03T00:16:12.904Z,75.88
2023-07-03T00:17:12.874Z,76.59
2023-07-03T00:18:12.879Z,76.18
2023-07-03T00:19:12.877Z,74.66
2023-07-03T00:20:12.887Z,74.87
2023-07-03T00:21:12.876Z,75.68
2023-07-03T00:22:12.881Z,74.46
2023-07-03T00:23:12.878Z,74.66
2023-07-03T00:24:12.888Z,77.39
2023-07-03T00:25:12.895Z,75.61
2023-07-03T00:26:12.900Z,76.28
2023-07-03T00:27:12.879Z,74.50
2023-07-03T00:28:12.880Z,74.40
2023-07-03T00:29:12.877Z,75.41
2023-07-03T00:30:12.926Z,75.31
2023-07-03T00:31:12.909Z,75.81
2023-07-03T00:32:12.888Z,73.19
2023-07-03T00:33:12.888Z,71.47
2023-07-03T00:34:12.878Z,74.50
2023-07-03T00:35:12.886Z,74.50
2023-07-03T00:36:12.882Z,75.45
2023-07-03T00:37:12.879Z,74.54
2023-07-03T00:38:12.890Z,77.26
2023-07-03T00:39:12.879Z,78.44
2023-07-03T00:40:12.882Z,77.26
2023-07-03T00:41:12.878Z,77.23
2023-07-03T00:42:12.909Z,77.47
2023-07-03T00:43:12.879Z,76.32
2023-07-03T00:44:12.901Z,74.94
2023-07-03T00:45:12.890Z,76.05
2023-07-03T00:46:12.913Z,75.85
2023-07-03T00:47:12.879Z,75.04
2023-07-03T00:48:12.881Z,74.74
2023-07-03T00:49:12.891Z,74.37
2023-07-03T00:50:12.900Z,74.63
2023-07-03T00:51:12.893Z,77.30
2023-07-03T00:52:12.881Z,76.46
2023-07-03T00:53:15.632Z,76.15
2023-07-03T00:54:12.884Z,77.37
2023-07-03T00:55:12.894Z,76.39
2023-07-03T00:56:12.882Z,76.76
2023-07-03T00:57:12.881Z,77.57
2023-07-03T00:58:12.924Z,77.06
2023-07-03T00:59:12.884Z,76.46
2023-07-03T01:00:12.890Z,77.57
2023-07-03T01:01:12.955Z,76.39
2023-07-03T01:02:12.894Z,77.67
2023-07-03T01:03:12.887Z,76.15
2023-07-03T01:04:12.925Z,75.18
2023-07-03T01:05:12.937Z,75.18
2023-07-03T01:06:12.886Z,75.99
2023-07-03T01:07:12.888Z,76.29
2023-07-03T01:08:12.896Z,76.50
2023-07-03T01:09:12.883Z,77.71
2023-07-03T01:10:12.899Z,77.77
2023-07-03T01:11:12.888Z,76.09
2023-07-03T01:12:12.892Z,77.26
2023-07-03T01:13:12.889Z,76.70
2023-07-03T01:14:12.905Z,78.08
2023-07-03T01:15:12.906Z,76.79
2023-07-03T01:16:12.907Z,76.39
2023-07-03T01:17:12.889Z,79.19
2023-07-03T01:18:12.892Z,76.39
2023-07-03T01:19:12.888Z,76.09
2023-07-03T01:20:12.894Z,76.39
2023-07-03T01:21:12.894Z,77.40
2023-07-03T01:22:12.888Z,75.28
2023-07-03T01:23:12.889Z,75.45
2023-07-03T01:24:12.884Z,76.59
2023-07-03T01:25:12.888Z,77.61
2023-07-03T01:26:12.892Z,77.37
2023-07-03T01:27:12.940Z,77.10
2023-07-03T01:28:12.890Z,76.50
2023-07-03T01:29:12.891Z,76.70
2023-07-03T01:30:12.907Z,77.61
2023-07-03T01:31:12.904Z,76.90
2023-07-03T01:32:12.905Z,75.28
2023-07-03T01:33:12.900Z,76.29
2023-07-03T01:34:12.897Z,77.10
2023-07-03T01:35:12.924Z,77.24
2023-07-03T01:36:12.891Z,77.81
2023-07-03T01:37:12.903Z,79.63
2023-07-03T01:38:12.892Z,75.99
2023-07-03T01:39:12.891Z,76.50
2023-07-03T01:40:12.890Z,76.90
2023-07-03T01:41:12.889Z,78.21
2023-07-03T01:42:12.894Z,78.11
2023-07-03T01:43:12.892Z,78.11
2023-07-03T01:44:12.890Z,78.11
2023-07-03T01:45:12.906Z,78.21
2023-07-03T01:46:12.947Z,79.22
2023-07-03T01:47:12.894Z,77.54
2023-07-03T01:48:12.898Z,75.01
2023-07-03T01:49:12.912Z,76.03
2023-07-03T01:50:12.904Z,77.34
2023-07-03T01:51:12.889Z,79.06
2023-07-03T01:52:12.894Z,75.85
2023-07-03T01:53:12.912Z,77.58
2023-07-03T01:54:12.921Z,77.37
2023-07-03T01:55:12.917Z,79.40
2023-07-03T01:56:12.890Z,76.46
2023-07-03T01:57:12.892Z,76.06
2023-07-03T01:58:12.934Z,77.68
2023-07-03T01:59:12.893Z,79.20
2023-07-03T02:00:12.906Z,77.88
2023-07-03T02:01:12.914Z,77.48
2023-07-03T02:02:12.953Z,77.07
2023-07-03T02:03:13.002Z,77.68
2023-07-03T02:04:12.906Z,77.48
2023-07-03T02:05:12.932Z,79.60
2023-07-03T02:06:12.896Z,78.89
2023-07-03T02:07:12.892Z,78.39
2023-07-03T02:08:12.889Z,81.18
2023-07-03T02:09:12.899Z,80.07
2023-07-03T02:10:12.893Z,80.78
2023-07-03T02:11:12.890Z,80.07
2023-07-03T02:12:12.894Z,80.07
2023-07-03T02:13:12.892Z,78.15
2023-07-03T02:14:12.888Z,77.44
2023-07-03T02:15:12.904Z,78.55
2023-07-03T02:16:12.912Z,79.26
2023-07-03T02:17:12.895Z,78.55
2023-07-03T02:18:12.912Z,79.77
2023-07-03T02:19:12.887Z,79.87
2023-07-03T02:20:12.890Z,79.36
2023-07-03T02:21:12.889Z,80.27
2023-07-03T02:22:12.908Z,79.26
2023-07-03T02:23:12.894Z,80.07
2023-07-03T02:24:12.884Z,78.66
2023-07-03T02:25:12.889Z,78.25
2023-07-03T02:26:12.893Z,79.46
2023-07-03T02:27:12.888Z,79.67
2023-07-03T02:28:12.895Z,79.67
2023-07-03T02:29:12.881Z,79.57
2023-07-03T02:30:12.902Z,79.40
2023-07-03T02:31:12.950Z,80.18
2023-07-03T02:32:12.888Z,80.07
2023-07-03T02:33:12.895Z,79.77
2023-07-03T02:34:12.914Z,80.18
2023-07-03T02:35:12.884Z,79.16
2023-07-03T02:36:12.897Z,78.15
2023-07-03T02:37:12.886Z,79.06
2023-07-03T02:38:12.884Z,80.68
2023-07-03T02:39:12.887Z,80.58
2023-07-03T02:40:12.885Z,79.91
2023-07-03T02:41:12.886Z,79.97
2023-07-03T02:42:12.881Z,80.47
2023-07-03T02:43:12.886Z,80.18
2023-07-03T02:44:12.885Z,79.77
2023-07-03T02:45:12.883Z,81.90
2023-07-03T02:46:12.883Z,81.59
2023-07-03T02:47:12.941Z,81.90
2023-07-03T02:48:12.909Z,81.43
2023-07-03T02:49:12.890Z,81.90
2023-07-03T02:50:12.919Z,80.92
2023-07-03T02:51:12.888Z,81.12
2023-07-03T02:52:12.902Z,82.03
2023-07-03T02:53:12.898Z,82.75
2023-07-03T02:54:12.888Z,82.24
2023-07-03T02:55:12.883Z,81.39
2023-07-03T02:56:12.883Z,80.31
2023-07-03T02:57:12.881Z,82.14
2023-07-03T02:58:12.882Z,82.75
2023-07-03T02:59:12.879Z,82.24
2023-07-03T03:00:12.882Z,80.92
2023-07-03T03:01:12.893Z,81.73
2023-07-03T03:02:12.892Z,81.52
2023-07-03T03:03:13.013Z,82.84
2023-07-03T03:04:12.893Z,81.83
2023-07-03T03:05:12.880Z,82.24
2023-07-03T03:06:12.898Z,83.35
2023-07-03T03:07:12.884Z,82.95
2023-07-03T03:08:12.877Z,83.35
2023-07-03T03:09:12.884Z,83.35
2023-07-03T03:10:12.882Z,82.54
2023-07-03T03:11:12.885Z,83.15
2023-07-03T03:12:12.882Z,82.84
2023-07-03T03:13:12.886Z,82.95
2023-07-03T03:14:12.881Z,83.49
2023-07-03T03:15:12.883Z,83.55
2023-07-03T03:16:12.910Z,83.65
2023-07-03T03:17:12.882Z,83.35
2023-07-03T03:18:12.877Z,83.04
2023-07-03T03:19:12.880Z,83.65
2023-07-03T03:20:12.885Z,84.77
2023-07-03T03:21:12.926Z,84.47
2023-07-03T03:22:12.902Z,84.10
2023-07-03T03:23:12.892Z,84.00
2023-07-03T03:24:12.880Z,83.90
2023-07-03T03:25:12.888Z,83.69
2023-07-03T03:26:12.909Z,84.61
2023-07-03T03:27:13.826Z,84.44
2023-07-03T03:28:12.880Z,84.10
2023-07-03T03:29:13.687Z,84.50
2023-07-03T03:30:12.889Z,83.69
2023-07-03T03:31:12.896Z,84.00
2023-07-03T03:32:12.880Z,84.10
2023-07-03T03:33:12.883Z,84.61
2023-07-03T03:34:12.879Z,84.81
2023-07-03T03:35:12.881Z,84.91
2023-07-03T03:36:12.901Z,84.81
2023-07-03T03:37:12.896Z,84.50
2023-07-03T03:38:12.901Z,85.21
2023-07-03T03:39:12.883Z,84.91
2023-07-03T03:40:12.883Z,84.95
2023-07-03T03:41:12.879Z,85.11
2023-07-03T03:42:12.887Z,85.52
2023-07-03T03:43:12.886Z,85.05
2023-07-03T03:44:12.882Z,84.61
2023-07-03T03:45:12.899Z,85.11
2023-07-03T03:46:12.881Z,85.21
2023-07-03T03:47:12.883Z,85.62
2023-07-03T03:48:13.044Z,84.91
2023-07-03T03:49:12.886Z,84.61
2023-07-03T03:50:12.896Z,83.59
2023-07-03T03:51:12.886Z,84.70
2023-07-03T03:52:12.883Z,85.82
2023-07-03T03:53:12.882Z,86.13
2023-07-03T03:54:12.906Z,85.42
2023-07-03T03:55:12.883Z,85.52
2023-07-03T03:56:12.878Z,85.52
2023-07-03T03:57:12.885Z,85.93
2023-07-03T03:58:12.886Z,85.72
2023-07-03T03:59:12.893Z,85.31
2023-07-03T04:00:12.879Z,85.21
2023-07-03T04:01:12.968Z,84.81
2023-07-03T04:02:12.901Z,84.97
2023-07-03T04:03:12.888Z,85.27
2023-07-03T04:04:12.940Z,85.48
2023-07-03T04:05:13.236Z,84.87
2023-07-03T04:06:12.875Z,84.77
2023-07-03T04:07:12.876Z,85.48
2023-07-03T04:08:12.875Z,85.42
2023-07-03T04:09:12.885Z,85.88
2023-07-03T04:10:12.904Z,84.67
2023-07-03T04:11:12.906Z,85.21
2023-07-03T04:12:12.885Z,86.08
2023-07-03T04:13:12.895Z,85.99
2023-07-03T04:14:12.878Z,85.82
2023-07-03T04:15:12.881Z,86.13
2023-07-03T04:16:12.928Z,86.22
2023-07-03T04:17:12.885Z,86.43
2023-07-03T04:18:12.886Z,86.94
2023-07-03T04:19:12.877Z,87.24
2023-07-03T04:20:12.873Z,86.22
2023-07-03T04:21:12.876Z,86.33
2023-07-03T04:22:12.872Z,86.73
2023-07-03T04:23:12.874Z,87.04
2023-07-03T04:24:12.886Z,86.13
2023-07-03T04:25:12.889Z,86.08
2023-07-03T04:26:12.896Z,86.02
2023-07-03T04:27:12.901Z,86.53
2023-07-03T04:28:12.873Z,86.33
2023-07-03T04:29:12.873Z,86.43
2023-07-03T04:30:12.879Z,86.94
2023-07-03T04:31:12.958Z,86.49
2023-07-03T04:32:12.888Z,86.39
2023-07-03T04:33:12.873Z,86.22
2023-07-03T04:34:12.880Z,86.53
2023-07-03T04:35:12.875Z,86.94
2023-07-03T04:36:12.876Z,86.83
2023-07-03T04:37:12.879Z,85.82
2023-07-03T04:38:12.874Z,87.24
2023-07-03T04:39:12.881Z,87.34
2023-07-03T04:40:12.884Z,87.10
2023-07-03T04:41:12.928Z,87.34
2023-07-03T04:42:12.892Z,87.14
2023-07-03T04:43:12.875Z,87.24
2023-07-03T04:44:12.881Z,88.15
2023-07-03T04:45:12.870Z,86.73
2023-07-03T04:46:12.916Z,87.45
2023-07-03T04:47:12.913Z,87.54
2023-07-03T04:48:12.868Z,85.72
2023-07-03T04:49:12.877Z,86.43
2023-07-03T04:50:12.872Z,86.53
2023-07-03T04:51:12.879Z,86.94
2023-07-03T04:52:12.869Z,87.24
2023-07-03T04:53:12.875Z,87.60
2023-07-03T04:54:12.870Z,87.51
2023-07-03T04:55:12.880Z,86.90
2023-07-03T04:56:12.870Z,86.02
2023-07-03T04:57:12.870Z,86.59
2023-07-03T04:58:12.888Z,86.53
2023-07-03T04:59:12.873Z,87.04
2023-07-03T05:00:12.876Z,87.00
2023-07-03T05:01:12.958Z,87.65
2023-07-03T05:02:12.876Z,87.54
2023-07-03T05:03:12.960Z,87.74
2023-07-03T05:04:13.055Z,87.74
2023-07-03T05:05:12.872Z,87.54
2023-07-03T05:06:12.879Z,87.34
2023-07-03T05:07:12.875Z,87.54
2023-07-03T05:08:12.875Z,87.04
2023-07-03T05:09:12.885Z,87.40
2023-07-03T05:10:12.889Z,88.35
2023-07-03T05:11:12.873Z,87.95
2023-07-03T05:12:12.871Z,87.85
2023-07-03T05:13:12.879Z,87.85
2023-07-03T05:14:12.888Z,87.54
2023-07-03T05:15:12.877Z,87.20
2023-07-03T05:16:12.909Z,87.74
2023-07-03T05:17:12.874Z,87.34
2023-07-03T05:18:12.873Z,87.45
2023-07-03T05:19:12.872Z,87.24
2023-07-03T05:20:12.876Z,87.85
2023-07-03T05:21:12.875Z,87.14
2023-07-03T05:22:12.871Z,87.45
2023-07-03T05:23:12.876Z,87.51
2023-07-03T05:24:12.878Z,87.00
2023-07-03T05:25:12.879Z,87.51
2023-07-03T05:26:12.905Z,87.30
2023-07-03T05:27:12.872Z,86.90
2023-07-03T05:28:12.887Z,86.39
2023-07-03T05:29:12.879Z,86.90
2023-07-03T05:30:12.902Z,87.20
2023-07-03T05:31:12.938Z,87.00
2023-07-03T05:32:12.879Z,86.39
2023-07-03T05:33:12.871Z,86.69
2023-07-03T05:34:12.873Z,86.19
2023-07-03T05:35:12.876Z,86.69
2023-07-03T05:36:12.880Z,86.90
2023-07-03T05:37:12.879Z,86.90
2023-07-03T05:38:12.873Z,87.00
2023-07-03T05:39:12.899Z,87.00
2023-07-03T05:40:13.127Z,87.00
2023-07-03T05:41:12.871Z,86.59
2023-07-03T05:42:12.869Z,86.55
2023-07-03T05:43:12.877Z,86.05
2023-07-03T05:44:12.882Z,86.25
2023-07-03T05:45:12.870Z,86.55
2023-07-03T05:46:12.886Z,85.74
2023-07-03T05:47:12.885Z,85.99
2023-07-03T05:48:12.877Z,85.94
2023-07-03T05:49:12.868Z,86.76
2023-07-03T05:50:12.894Z,86.85
2023-07-03T05:51:12.873Z,86.65
2023-07-03T05:52:12.879Z,85.44
2023-07-03T05:53:12.878Z,86.45
2023-07-03T05:54:12.869Z,86.55
2023-07-03T05:55:12.874Z,86.25
2023-07-03T05:56:12.869Z,86.35
2023-07-03T05:57:12.873Z,85.64
2023-07-03T05:58:12.870Z,85.64
2023-07-03T05:59:12.881Z,85.94
2023-07-03T06:00:12.884Z,86.41
2023-07-03T06:01:12.914Z,86.00
2023-07-03T06:02:12.929Z,84.93
2023-07-03T06:03:12.945Z,84.73
2023-07-03T06:04:13.028Z,84.59
2023-07-03T06:05:12.869Z,86.00
2023-07-03T06:06:12.873Z,86.41
2023-07-03T06:07:12.875Z,86.41
2023-07-03T06:08:12.869Z,85.90
2023-07-03T06:09:12.866Z,85.70
2023-07-03T06:10:12.874Z,85.80
2023-07-03T06:11:12.878Z,83.82
2023-07-03T06:12:12.869Z,84.42
2023-07-03T06:13:12.868Z,84.83
2023-07-03T06:14:12.867Z,84.63
2023-07-03T06:15:12.876Z,84.83
2023-07-03T06:16:13.764Z,84.48
2023-07-03T06:17:12.950Z,84.73
2023-07-03T06:18:12.979Z,84.83
2023-07-03T06:19:12.868Z,83.92
2023-07-03T06:20:12.864Z,84.53
2023-07-03T06:21:12.864Z,85.33
2023-07-03T06:22:12.878Z,86.25
2023-07-03T06:23:12.866Z,86.45
2023-07-03T06:24:12.868Z,86.25
2023-07-03T06:25:12.869Z,86.45
2023-07-03T06:26:12.869Z,86.65
2023-07-03T06:27:12.867Z,85.94
2023-07-03T06:28:12.885Z,86.10
2023-07-03T06:29:14.599Z,86.05
2023-07-03T06:30:12.865Z,85.24
2023-07-03T06:31:12.917Z,85.94
2023-07-03T06:32:12.873Z,86.71
2023-07-03T06:33:12.906Z,86.10
2023-07-03T06:34:13.012Z,86.51
2023-07-03T06:35:12.895Z,86.51
2023-07-03T06:36:12.869Z,86.71
2023-07-03T06:37:12.863Z,86.51
2023-07-03T06:38:12.878Z,86.21
2023-07-03T06:39:12.865Z,86.71
2023-07-03T06:40:12.887Z,84.48
2023-07-03T06:41:12.860Z,84.48
2023-07-03T06:42:12.864Z,86.00
2023-07-03T06:43:12.856Z,85.70
2023-07-03T06:44:12.864Z,85.19
2023-07-03T06:45:12.871Z,85.90
2023-07-03T06:46:12.904Z,86.61
2023-07-03T06:47:12.874Z,86.51
2023-07-03T06:48:12.888Z,86.51
2023-07-03T06:49:12.860Z,86.51
2023-07-03T06:50:12.968Z,86.31
2023-07-03T06:51:12.862Z,86.10
2023-07-03T06:52:12.869Z,85.30
2023-07-03T06:53:12.887Z,86.27
2023-07-03T06:54:12.863Z,85.30
2023-07-03T06:55:12.855Z,86.51
2023-07-03T06:56:12.857Z,86.41
2023-07-03T06:57:12.858Z,86.71
2023-07-03T06:58:12.857Z,84.59
2023-07-03T06:59:12.860Z,84.99
2023-07-03T07:00:12.860Z,85.66
2023-07-03T07:01:12.860Z,85.66
2023-07-03T07:02:13.018Z,85.76
2023-07-03T07:03:12.924Z,86.87
2023-07-03T07:04:13.047Z,87.48
2023-07-03T07:05:13.026Z,86.16
2023-07-03T07:06:13.158Z,86.16
2023-07-03T07:07:12.858Z,86.37
2023-07-03T07:08:12.875Z,86.98
2023-07-03T07:09:12.864Z,85.36
2023-07-03T07:10:12.863Z,84.34
2023-07-03T07:11:12.867Z,85.42
2023-07-03T07:12:12.860Z,86.83
2023-07-03T07:13:12.858Z,86.73
2023-07-03T07:14:12.859Z,86.33
2023-07-03T07:15:12.865Z,86.43
2023-07-03T07:16:12.866Z,86.73
2023-07-03T07:17:12.856Z,87.44
2023-07-03T07:18:12.902Z,85.72
2023-07-03T07:19:12.861Z,84.27
2023-07-03T07:20:12.869Z,84.51
2023-07-03T07:21:12.857Z,83.76
2023-07-03T07:22:12.960Z,84.37
2023-07-03T07:23:13.559Z,83.76
2023-07-03T07:24:12.870Z,86.08
2023-07-03T07:25:12.871Z,86.69
2023-07-03T07:26:12.856Z,83.46
2023-07-03T07:27:12.862Z,82.55
2023-07-03T07:28:12.878Z,83.15
2023-07-03T07:29:12.871Z,84.37
2023-07-03T07:30:12.921Z,84.23
2023-07-03T07:31:12.895Z,83.22
2023-07-03T07:32:12.865Z,84.03
2023-07-03T07:33:12.856Z,84.23
2023-07-03T07:34:12.861Z,83.32
2023-07-03T07:35:12.872Z,82.71
2023-07-03T07:36:12.886Z,83.52
2023-07-03T07:37:12.858Z,84.33
2023-07-03T07:38:12.986Z,83.18
2023-07-03T07:39:12.860Z,84.19
2023-07-03T07:40:12.867Z,83.07
2023-07-03T07:41:12.885Z,82.37
2023-07-03T07:42:12.860Z,80.55
2023-07-03T07:43:12.857Z,78.23
2023-07-03T07:44:12.856Z,79.54
2023-07-03T07:45:12.864Z,82.27
2023-07-03T07:46:12.913Z,82.98
2023-07-03T07:47:12.860Z,84.39
2023-07-03T07:48:12.858Z,82.87
2023-07-03T07:49:12.860Z,83.48
2023-07-03T07:50:12.871Z,82.67
2023-07-03T07:51:12.865Z,80.15
2023-07-03T07:52:12.858Z,81.52
2023-07-03T07:53:12.862Z,81.82
2023-07-03T07:54:12.917Z,83.58
2023-07-03T07:55:12.858Z,82.67
2023-07-03T07:56:12.876Z,82.87
2023-07-03T07:57:12.869Z,81.93
2023-07-03T07:58:12.866Z,81.67
2023-07-03T07:59:12.859Z,82.37
2023-07-03T08:00:12.862Z,80.05
2023-07-03T08:01:13.057Z,79.85
2023-07-03T08:02:12.905Z,78.53
2023-07-03T08:03:12.903Z,80.01
2023-07-03T08:04:12.955Z,80.31
2023-07-03T08:05:12.914Z,80.55
2023-07-03T08:06:12.860Z,79.61
2023-07-03T08:07:12.863Z,81.42
2023-07-03T08:08:12.864Z,81.62
2023-07-03T08:09:12.858Z,79.00
2023-07-03T08:10:12.965Z,77.79
2023-07-03T08:11:12.864Z,77.59
2023-07-03T08:12:12.863Z,77.59
2023-07-03T08:13:12.868Z,78.46
2023-07-03T08:14:12.865Z,77.86
2023-07-03T08:15:12.859Z,76.34
2023-07-03T08:16:13.012Z,76.95
2023-07-03T08:17:12.860Z,76.04
2023-07-03T08:18:12.866Z,77.59
2023-07-03T08:19:12.870Z,76.18
2023-07-03T08:20:12.862Z,75.67
2023-07-03T08:21:12.859Z,75.67
2023-07-03T08:22:12.867Z,76.14
2023-07-03T08:23:12.870Z,75.74
2023-07-03T08:24:12.866Z,76.64
2023-07-03T08:25:12.876Z,76.71
2023-07-03T08:26:13.036Z,75.80
2023-07-03T08:27:12.866Z,77.08
2023-07-03T08:28:12.870Z,74.86
2023-07-03T08:29:12.893Z,73.08
2023-07-03T08:30:12.876Z,72.58
2023-07-03T08:31:12.929Z,72.88
2023-07-03T08:32:12.901Z,73.65
2023-07-03T08:33:12.939Z,73.95
2023-07-03T08:34:12.871Z,72.94
2023-07-03T08:37:12.862Z,74.05
2023-07-03T08:38:12.874Z,72.04
2023-07-03T08:39:12.881Z,69.82
2023-07-03T08:40:12.866Z,72.38
2023-07-03T08:41:12.869Z,73.85
2023-07-03T08:42:12.985Z,73.14
2023-07-03T08:43:12.865Z,72.85
2023-07-03T08:44:12.863Z,75.46
2023-07-03T08:45:12.865Z,71.84
2023-07-03T08:46:12.905Z,72.85
2023-07-03T08:47:12.959Z,71.67
2023-07-03T08:48:12.959Z,71.33
2023-07-03T08:49:12.863Z,70.62
2023-07-03T08:50:14.823Z,70.02
2023-07-03T08:51:12.915Z,71.03
2023-07-03T08:52:12.871Z,71.23
2023-07-03T08:53:12.864Z,70.83
2023-07-03T08:54:12.875Z,72.14
2023-07-03T08:55:12.863Z,69.92
2023-07-03T08:56:12.864Z,70.42
2023-07-03T08:57:12.864Z,70.83
2023-07-03T08:58:12.979Z,68.51
2023-07-03T08:59:12.863Z,68.71
2023-07-03T09:00:12.906Z,68.51
2023-07-03T09:01:12.895Z,71.23
2023-07-03T09:02:12.933Z,71.53
2023-07-03T09:03:12.952Z,70.12
2023-07-03T09:04:12.948Z,69.72
2023-07-03T09:05:12.866Z,69.25
2023-07-03T09:06:12.869Z,72.34
2023-07-03T09:07:12.873Z,71.64
2023-07-03T09:08:12.878Z,69.72
2023-07-03T09:09:12.889Z,71.13
2023-07-03T09:10:12.884Z,72.24
2023-07-03T09:11:12.866Z,69.92
2023-07-03T09:12:12.867Z,71.94
2023-07-03T09:13:12.873Z,69.01
2023-07-03T09:14:12.981Z,67.17
2023-07-03T09:15:12.866Z,71.20
2023-07-03T09:16:12.868Z,68.58
2023-07-03T09:17:13.096Z,69.38
2023-07-03T09:18:12.953Z,68.78
2023-07-03T09:19:12.879Z,69.49
2023-07-03T09:20:12.870Z,69.99
2023-07-03T09:21:12.875Z,73.52
2023-07-03T09:22:12.879Z,73.92
2023-07-03T09:23:12.870Z,73.14
2023-07-03T09:24:12.868Z,72.71
2023-07-03T09:25:12.888Z,68.88
2023-07-03T09:26:12.905Z,68.48
2023-07-03T09:27:12.870Z,67.88
2023-07-03T09:28:12.872Z,67.68
2023-07-03T09:29:12.955Z,70.59
2023-07-03T09:30:14.918Z,71.00
2023-07-03T09:31:12.893Z,71.20
2023-07-03T09:32:12.881Z,70.42
2023-07-03T09:33:12.979Z,68.81
2023-07-03T09:34:12.878Z,68.01
2023-07-03T09:35:12.878Z,70.22
2023-07-03T09:36:12.876Z,69.52
2023-07-03T09:37:12.871Z,69.21
2023-07-03T09:38:12.894Z,69.01
2023-07-03T09:39:12.884Z,69.21
2023-07-03T09:40:12.925Z,68.95
2023-07-03T09:41:12.876Z,68.71
2023-07-03T09:42:12.998Z,71.44
2023-07-03T09:43:12.887Z,72.04
2023-07-03T09:44:13.292Z,72.94
2023-07-03T09:45:12.879Z,70.02
2023-07-03T09:46:12.984Z,71.94
2023-07-03T09:47:12.907Z,70.12
2023-07-03T09:48:13.074Z,69.21
2023-07-03T09:49:12.871Z,68.91
2023-07-03T09:50:13.947Z,72.34
2023-07-03T09:51:13.101Z,69.42
2023-07-03T09:52:12.875Z,69.55
2023-07-03T09:53:13.823Z,72.85
2023-07-03T09:54:13.379Z,72.94
2023-07-03T09:55:12.875Z,69.42
2023-07-03T09:56:12.876Z,69.75
2023-07-03T09:57:12.885Z,70.62
2023-07-03T09:58:12.902Z,69.82
2023-07-03T09:59:12.888Z,70.73
2023-07-03T10:00:12.905Z,69.95
2023-07-03T10:07:12.963Z,70.93
2023-07-03T10:08:13.153Z,70.02
2023-07-03T10:11:12.881Z,69.65
2023-07-03T10:12:13.330Z,70.02
2023-07-03T10:13:12.896Z,70.42
2023-07-03T10:14:12.878Z,69.62
2023-07-03T10:15:12.954Z,71.13
2023-07-03T10:16:12.889Z,68.04
2023-07-03T10:17:12.986Z,68.61
2023-07-03T10:18:13.098Z,67.40
2023-07-03T10:19:12.878Z,69.52
2023-07-03T10:20:12.893Z,69.32
2023-07-03T10:21:12.881Z,70.42
2023-07-03T10:22:12.882Z,70.02
2023-07-03T10:23:12.890Z,69.75
2023-07-03T10:24:12.878Z,69.05
2023-07-03T10:25:12.878Z,69.75
2023-07-03T10:26:12.878Z,69.05
2023-07-03T10:27:12.880Z,67.94
2023-07-03T10:28:12.884Z,68.54
2023-07-03T10:29:12.881Z,68.95
2023-07-03T10:30:12.885Z,67.33
2023-07-03T10:31:12.934Z,68.24
2023-07-03T10:32:12.969Z,68.04
2023-07-03T10:33:12.933Z,68.17
2023-07-03T10:34:12.982Z,71.30
2023-07-03T10:35:12.887Z,71.06
2023-07-03T10:36:12.880Z,67.43
2023-07-03T10:37:12.882Z,68.88
2023-07-03T10:38:12.880Z,68.37
2023-07-03T10:39:12.879Z,68.88
2023-07-03T10:40:12.883Z,68.88
2023-07-03T10:41:12.886Z,69.18
2023-07-03T10:42:12.883Z,71.60
2023-07-03T10:43:12.888Z,69.89
2023-07-03T10:44:12.877Z,71.91
2023-07-03T10:45:12.880Z,71.33
2023-07-03T10:46:12.893Z,71.33
2023-07-03T10:47:12.917Z,69.31
2023-07-03T10:48:12.880Z,71.64
2023-07-03T10:49:12.887Z,71.53
2023-07-03T10:50:12.984Z,71.33
2023-07-03T10:51:12.880Z,69.99
2023-07-03T10:52:12.895Z,72.00
2023-07-03T10:53:12.882Z,71.44
2023-07-03T10:54:12.887Z,72.91
2023-07-03T10:55:12.893Z,74.43
2023-07-03T10:56:12.888Z,72.91
2023-07-03T10:57:12.891Z,74.43
2023-07-03T10:58:12.900Z,73.01
2023-07-03T10:59:12.887Z,73.79
2023-07-03T11:00:12.883Z,74.02
2023-07-03T11:01:12.967Z,72.61
2023-07-03T11:02:12.891Z,72.41
2023-07-03T11:03:12.918Z,71.80
2023-07-03T11:04:24.047Z,72.31
2023-07-03T11:05:12.885Z,73.99
2023-07-03T11:06:13.013Z,72.98
2023-07-03T11:07:12.892Z,71.77
2023-07-03T11:08:12.897Z,72.98
2023-07-03T11:09:12.892Z,74.08
2023-07-03T11:10:12.990Z,71.77
2023-07-03T11:11:12.894Z,71.77
2023-07-03T11:12:12.912Z,74.19
2023-07-03T11:13:12.948Z,72.88
2023-07-03T11:14:12.892Z,72.78
2023-07-03T11:15:12.889Z,73.18
2023-07-03T11:16:13.000Z,71.60
2023-07-03T11:17:12.889Z,72.41
2023-07-03T11:20:13.164Z,75.34
2023-07-03T11:23:12.977Z,74.99
2023-07-03T11:24:12.887Z,76.31
2023-07-03T11:25:12.889Z,76.20
2023-07-03T11:28:12.889Z,72.34
2023-07-03T11:29:13.090Z,72.34
2023-07-03T11:30:12.969Z,73.95
2023-07-03T11:31:12.929Z,74.15
2023-07-03T11:32:12.932Z,75.76
2023-07-03T11:33:12.908Z,75.67
2023-07-03T11:36:14.095Z,75.56
2023-07-03T11:37:12.894Z,75.36
2023-07-03T11:40:13.012Z,74.86
2023-07-03T11:44:12.906Z,75.87
2023-07-03T11:45:12.912Z,75.87
2023-07-03T11:46:12.904Z,77.34
2023-07-03T11:47:12.993Z,75.02
2023-07-03T11:48:12.897Z,71.70
2023-07-03T11:49:12.916Z,74.82
2023-07-03T11:50:12.903Z,76.23
2023-07-03T11:51:12.908Z,75.53
2023-07-03T11:52:12.937Z,74.82
2023-07-03T11:53:12.904Z,74.32
2023-07-03T11:54:12.921Z,74.52
2023-07-03T11:55:12.909Z,74.93
2023-07-03T11:56:12.908Z,73.32
2023-07-03T11:57:12.906Z,73.21
2023-07-03T11:58:20.960Z,74.02
2023-07-03T11:59:12.911Z,72.31
2023-07-03T12:00:12.902Z,71.70
2023-07-03T12:01:12.964Z,72.81
2023-07-03T12:02:12.916Z,73.61
2023-07-03T12:03:13.042Z,74.82
2023-07-03T12:04:12.909Z,74.82
2023-07-03T12:05:12.949Z,74.22
2023-07-03T12:06:12.912Z,74.52
2023-07-03T12:07:12.916Z,74.05
2023-07-03T12:08:12.916Z,74.05
2023-07-03T12:09:12.917Z,71.03
2023-07-03T12:10:12.945Z,72.14
2023-07-03T12:11:12.915Z,71.84
2023-07-03T12:12:12.917Z,74.05
2023-07-03T12:13:12.931Z,75.13
2023-07-03T12:14:12.916Z,72.81
2023-07-03T12:15:13.171Z,75.93
2023-07-03T12:16:12.976Z,76.54
2023-07-03T12:17:12.920Z,75.02
2023-07-03T12:18:12.919Z,75.33
2023-07-03T12:19:12.929Z,75.26
2023-07-03T12:20:12.940Z,75.13
2023-07-03T12:21:12.917Z,77.04
2023-07-03T12:22:12.919Z,74.12
2023-07-03T12:23:12.921Z,76.54
2023-07-03T12:24:12.924Z,76.84
2023-07-03T12:25:12.924Z,76.50
2023-07-03T12:26:12.959Z,76.20
2023-07-03T12:27:12.925Z,76.10
2023-07-03T12:28:12.921Z,72.97
2023-07-03T12:29:12.931Z,75.49
2023-07-03T12:30:12.925Z,75.09
2023-07-03T12:31:13.011Z,71.87
2023-07-03T12:32:12.934Z,71.97
2023-07-03T12:33:12.924Z,72.57
2023-07-03T12:34:12.921Z,69.15
2023-07-03T12:35:12.949Z,67.54
2023-07-03T12:36:12.926Z,69.62
2023-07-03T12:37:12.925Z,70.53
2023-07-03T12:38:12.928Z,71.83
2023-07-03T12:39:12.927Z,69.22
2023-07-03T12:40:12.924Z,70.83
2023-07-03T12:41:12.930Z,70.63
2023-07-03T12:42:13.032Z,71.20
2023-07-03T12:43:12.927Z,68.71
2023-07-03T12:44:12.925Z,67.81
2023-07-03T12:45:12.927Z,67.18
2023-07-03T12:46:12.930Z,70.09
2023-07-03T12:47:12.933Z,67.18
2023-07-03T12:48:12.927Z,67.65
2023-07-03T12:49:12.929Z,68.25
2023-07-03T12:50:12.960Z,69.76
2023-07-03T12:51:12.931Z,67.55
2023-07-03T12:52:12.933Z,68.55
2023-07-03T12:53:12.935Z,68.05
2023-07-03T12:54:12.932Z,69.72
2023-07-03T12:55:15.190Z,67.01
2023-07-03T12:56:12.934Z,68.32
2023-07-03T12:57:12.938Z,67.31
2023-07-03T12:58:12.974Z,68.12
2023-07-03T12:59:12.940Z,67.51
2023-07-03T13:00:12.945Z,66.91
2023-07-03T13:01:12.980Z,66.47
2023-07-03T13:02:12.944Z,66.08
2023-07-03T13:03:12.942Z,68.79
2023-07-03T13:04:12.976Z,66.38
2023-07-03T13:05:13.028Z,66.00
2023-07-03T13:06:12.956Z,66.51
2023-07-03T13:07:12.947Z,66.61
2023-07-03T13:08:12.939Z,67.51
2023-07-03T13:09:12.944Z,67.61
2023-07-03T13:10:12.946Z,66.41
2023-07-03T13:11:12.945Z,65.80
2023-07-03T13:12:12.942Z,67.51
2023-07-03T13:13:13.073Z,67.71
2023-07-03T13:14:12.962Z,66.51
2023-07-03T13:15:12.954Z,66.61